sensor_id;sensor_type;location;lat;lon;timestamp;pressure;altitude;pressure_sealevel;temperature;humidity
24486;BME280;13449;49.374;8.584;2023-08-30T00:02:23;99980.22;;;13.95;100.00
24486;BME280;13449;49.374;8.584;2023-08-30T00:04:49;99981.56;;;13.99;100.00
24486;BME280;13449;49.374;8.584;2023-08-30T00:07:15;99973.63;;;13.99;100.00
24486;BME280;13449;49.374;8.584;2023-08-30T00:09:43;99969.97;;;14.00;100.00
24486;BME280;13449;49.374;8.584;2023-08-30T00:12:09;99964.84;;;13.99;100.00
24486;BME280;13449;49.374;8.584;2023-08-30T00:14:36;99965.00;;;13.97;100.00
24486;BME280;13449;49.374;8.584;2023-08-30T00:17:02;99958.19;;;13.95;100.00
24486;BME280;13449;49.374;8.584;2023-08-30T00:19:28;99958.34;;;13.93;100.00
24486;BME280;13449;49.374;8.584;2023-08-30T00:21:55;99967.81;;;13.96;100.00
24486;BME280;13449;49.374;8.584;2023-08-30T00:24:24;99970.44;;;13.96;100.00
24486;BME280;13449;49.374;8.584;2023-08-30T00:26:51;99969.97;;;14.00;100.00
24486;BME280;13449;49.374;8.584;2023-08-30T00:29:17;99977.88;;;14.10;100.00
24486;BME280;13449;49.374;8.584;2023-08-30T00:31:44;99976.09;;;14.19;100.00
24486;BME280;13449;49.374;8.584;2023-08-30T00:34:11;99973.75;;;14.16;100.00
24486;BME280;13449;49.374;8.584;2023-08-30T00:36:38;99976.41;;;14.16;100.00
24486;BME280;13449;49.374;8.584;2023-08-30T00:39:04;99972.09;;;14.15;100.00
24486;BME280;13449;49.374;8.584;2023-08-30T00:41:31;99968.09;;;14.11;100.00
24486;BME280;13449;49.374;8.584;2023-08-30T00:43:57;99977.03;;;14.09;100.00
24486;BME280;13449;49.374;8.584;2023-08-30T00:46:24;99963.13;;;14.07;100.00
24486;BME280;13449;49.374;8.584;2023-08-30T00:48:53;99969.69;;;14.03;100.00
24486;BME280;13449;49.374;8.584;2023-08-30T00:51:20;99968.00;;;14.02;100.00
24486;BME280;13449;49.374;8.584;2023-08-30T00:53:49;99962.03;;;14.00;100.00
24486;BME280;13449;49.374;8.584;2023-08-30T00:56:17;99969.84;;;14.02;100.00
24486;BME280;13449;49.374;8.584;2023-08-30T00:58:44;99959.25;;;14.02;100.00
24486;BME280;13449;49.374;8.584;2023-08-30T01:01:10;99960.38;;;13.99;100.00
24486;BME280;13449;49.374;8.584;2023-08-30T01:03:38;99963.03;;;13.99;100.00
24486;BME280;13449;49.374;8.584;2023-08-30T01:06:05;99958.41;;;14.01;100.00
24486;BME280;13449;49.374;8.584;2023-08-30T01:08:31;99953.78;;;14.03;100.00
24486;BME280;13449;49.374;8.584;2023-08-30T01:11:18;99952.84;;;14.04;100.00
24486;BME280;13449;49.374;8.584;2023-08-30T01:13:56;99945.00;;;14.03;100.00
24486;BME280;13449;49.374;8.584;2023-08-30T01:16:26;99940.84;;;14.00;100.00
24486;BME280;13449;49.374;8.584;2023-08-30T01:18:56;99948.13;;;13.98;100.00
24486;BME280;13449;49.374;8.584;2023-08-30T01:21:50;99944.66;;;13.98;100.00
24486;BME280;13449;49.374;8.584;2023-08-30T01:24:34;99935.56;;;14.00;100.00
24486;BME280;13449;49.374;8.584;2023-08-30T01:27:13;99937.53;;;13.98;100.00
24486;BME280;13449;49.374;8.584;2023-08-30T01:29:43;99941.84;;;13.99;100.00
24486;BME280;13449;49.374;8.584;2023-08-30T01:32:11;99940.84;;;14.00;100.00
24486;BME280;13449;49.374;8.584;2023-08-30T01:34:39;99936.38;;;14.01;100.00
24486;BME280;13449;49.374;8.584;2023-08-30T01:37:07;99932.31;;;14.06;100.00
24486;BME280;13449;49.374;8.584;2023-08-30T01:39:38;99933.34;;;14.14;100.00
24486;BME280;13449;49.374;8.584;2023-08-30T01:42:07;99929.03;;;14.13;100.00
24486;BME280;13449;49.374;8.584;2023-08-30T01:44:35;99930.88;;;14.12;100.00
24486;BME280;13449;49.374;8.584;2023-08-30T01:47:04;99925.72;;;14.11;100.00
24486;BME280;13449;49.374;8.584;2023-08-30T01:49:31;99919.59;;;14.10;100.00
24486;BME280;13449;49.374;8.584;2023-08-30T01:51:58;99925.88;;;14.09;100.00
24486;BME280;13449;49.374;8.584;2023-08-30T01:54:27;99923.22;;;14.09;100.00
24486;BME280;13449;49.374;8.584;2023-08-30T01:56:54;99924.38;;;14.06;100.00
24486;BME280;13449;49.374;8.584;2023-08-30T01:59:27;99921.88;;;14.05;100.00
24486;BME280;13449;49.374;8.584;2023-08-30T02:01:56;99921.88;;;14.05;100.00
24486;BME280;13449;49.374;8.584;2023-08-30T02:04:25;99916.72;;;14.03;100.00
24486;BME280;13449;49.374;8.584;2023-08-30T02:06:57;99918.41;;;14.04;100.00
24486;BME280;13449;49.374;8.584;2023-08-30T02:09:28;99925.50;;;14.04;100.00
24486;BME280;13449;49.374;8.584;2023-08-30T02:11:57;99919.34;;;14.03;100.00
24486;BME280;13449;49.374;8.584;2023-08-30T02:14:27;99912.72;;;13.99;100.00
24486;BME280;13449;49.374;8.584;2023-08-30T02:16:55;99918.84;;;14.00;100.00
24486;BME280;13449;49.374;8.584;2023-08-30T02:19:21;99914.69;;;13.97;100.00
24486;BME280;13449;49.374;8.584;2023-08-30T02:21:48;99915.66;;;13.96;100.00
24486;BME280;13449;49.374;8.584;2023-08-30T02:24:17;99916.34;;;13.98;100.00
24486;BME280;13449;49.374;8.584;2023-08-30T02:26:44;99916.66;;;13.95;100.00
24486;BME280;13449;49.374;8.584;2023-08-30T02:29:10;99916.66;;;13.95;100.00
24486;BME280;13449;49.374;8.584;2023-08-30T02:31:40;99914.84;;;13.96;100.00
24486;BME280;13449;49.374;8.584;2023-08-30T02:34:06;99925.59;;;13.94;100.00
24486;BME280;13449;49.374;8.584;2023-08-30T02:36:35;99925.28;;;13.97;100.00
24486;BME280;13449;49.374;8.584;2023-08-30T02:39:02;99923.47;;;13.98;100.00
24486;BME280;13449;49.374;8.584;2023-08-30T02:41:29;99925.28;;;13.97;100.00
24486;BME280;13449;49.374;8.584;2023-08-30T02:43:56;99928.09;;;13.96;100.00
24486;BME280;13449;49.374;8.584;2023-08-30T02:46:22;99926.56;;;13.93;100.00
24486;BME280;13449;49.374;8.584;2023-08-30T02:48:51;99925.59;;;13.94;100.00
24486;BME280;13449;49.374;8.584;2023-08-30T02:51:18;99923.94;;;13.93;100.00
24486;BME280;13449;49.374;8.584;2023-08-30T02:53:44;99924.75;;;13.94;100.00
24486;BME280;13449;49.374;8.584;2023-08-30T02:56:13;99915.31;;;13.91;100.00
24486;BME280;13449;49.374;8.584;2023-08-30T02:58:39;99923.41;;;13.90;100.00
24486;BME280;13449;49.374;8.584;2023-08-30T03:01:06;99920.59;;;13.91;100.00
24486;BME280;13449;49.374;8.584;2023-08-30T03:03:32;99919.63;;;13.92;100.00
24486;BME280;13449;49.374;8.584;2023-08-30T03:05:59;99920.28;;;13.94;100.00
24486;BME280;13449;49.374;8.584;2023-08-30T03:08:25;99923.78;;;13.95;100.00
24486;BME280;13449;49.374;8.584;2023-08-30T03:10:52;99921.59;;;13.90;100.00
24486;BME280;13449;49.374;8.584;2023-08-30T03:13:21;99924.97;;;14.00;100.00
24486;BME280;13449;49.374;8.584;2023-08-30T03:15:50;99916.19;;;14.00;100.00
24486;BME280;13449;49.374;8.584;2023-08-30T03:18:16;99919.66;;;14.00;100.00
24486;BME280;13449;49.374;8.584;2023-08-30T03:20:43;99916.59;;;14.05;100.00
24486;BME280;13449;49.374;8.584;2023-08-30T03:23:09;99914.06;;;14.03;100.00
24486;BME280;13449;49.374;8.584;2023-08-30T03:25:35;99926.34;;;14.04;100.00
24486;BME280;13449;49.374;8.584;2023-08-30T03:28:02;99928.28;;;14.02;100.00
24486;BME280;13449;49.374;8.584;2023-08-30T03:30:30;99930.09;;;14.02;100.00
24486;BME280;13449;49.374;8.584;2023-08-30T03:32:57;99925.28;;;13.97;100.00
24486;BME280;13449;49.374;8.584;2023-08-30T03:35:25;99913.84;;;13.97;100.00
24486;BME280;13449;49.374;8.584;2023-08-30T03:37:52;99924.97;;;14.00;100.00
24486;BME280;13449;49.374;8.584;2023-08-30T03:40:21;99929.28;;;14.01;100.00
24486;BME280;13449;49.374;8.584;2023-08-30T03:42:48;99924.38;;;14.06;100.00
24486;BME280;13449;49.374;8.584;2023-08-30T03:45:14;99924.22;;;14.08;100.00
24486;BME280;13449;49.374;8.584;2023-08-30T03:47:40;99924.38;;;14.06;100.00
24486;BME280;13449;49.374;8.584;2023-08-30T03:50:09;99927.19;;;14.05;100.00
24486;BME280;13449;49.374;8.584;2023-08-30T03:52:38;99923.00;;;14.02;100.00
24486;BME280;13449;49.374;8.584;2023-08-30T03:55:05;99912.03;;;13.97;100.00
24486;BME280;13449;49.374;8.584;2023-08-30T03:57:31;99923.63;;;13.96;100.00
24486;BME280;13449;49.374;8.584;2023-08-30T03:59:58;99917.97;;;13.91;100.00
24486;BME280;13449;49.374;8.584;2023-08-30T04:02:25;99916.28;;;13.90;100.00
24486;BME280;13449;49.374;8.584;2023-08-30T04:04:54;99921.03;;;13.87;100.00
24486;BME280;13449;49.374;8.584;2023-08-30T04:07:20;99915.75;;;13.87;100.00
24486;BME280;13449;49.374;8.584;2023-08-30T04:09:47;99913.41;;;13.84;100.00
24486;BME280;13449;49.374;8.584;2023-08-30T04:12:13;99915.69;;;13.78;100.00
24486;BME280;13449;49.374;8.584;2023-08-30T04:14:42;99918.78;;;13.74;100.00
24486;BME280;13449;49.374;8.584;2023-08-30T04:17:08;99909.63;;;13.68;100.00
24486;BME280;13449;49.374;8.584;2023-08-30T04:19:35;99910.44;;;13.69;100.00
24486;BME280;13449;49.374;8.584;2023-08-30T04:22:01;99908.47;;;13.71;100.00
24486;BME280;13449;49.374;8.584;2023-08-30T04:24:31;99916.72;;;13.68;100.00
24486;BME280;13449;49.374;8.584;2023-08-30T04:26:57;99915.59;;;13.70;100.00
24486;BME280;13449;49.374;8.584;2023-08-30T04:29:24;99917.13;;;13.73;100.00
24486;BME280;13449;49.374;8.584;2023-08-30T04:31:50;99917.41;;;13.70;100.00
24486;BME280;13449;49.374;8.584;2023-08-30T04:34:20;99913.09;;;13.69;100.00
24486;BME280;13449;49.374;8.584;2023-08-30T04:36:48;99904.63;;;13.65;100.00
24486;BME280;13449;49.374;8.584;2023-08-30T04:39:15;99906.44;;;13.65;100.00
24486;BME280;13449;49.374;8.584;2023-08-30T04:41:42;99907.13;;;13.67;100.00
24486;BME280;13449;49.374;8.584;2023-08-30T04:44:08;99905.84;;;13.71;100.00
24486;BME280;13449;49.374;8.584;2023-08-30T04:46:35;99904.03;;;13.71;100.00
24486;BME280;13449;49.374;8.584;2023-08-30T04:49:04;99893.97;;;13.75;100.00
24486;BME280;13449;49.374;8.584;2023-08-30T04:51:30;99897.00;;;13.80;100.00
24486;BME280;13449;49.374;8.584;2023-08-30T04:53:56;99894.34;;;13.80;100.00
24486;BME280;13449;49.374;8.584;2023-08-30T04:56:24;99895.66;;;13.76;100.00
24486;BME280;13449;49.374;8.584;2023-08-30T04:58:50;99901.47;;;13.79;100.00
24486;BME280;13449;49.374;8.584;2023-08-30T05:01:20;99896.16;;;13.79;100.00
24486;BME280;13449;49.374;8.584;2023-08-30T05:03:49;99897.00;;;13.80;100.00
24486;BME280;13449;49.374;8.584;2023-08-30T05:06:18;99904.63;;;13.83;100.00
24486;BME280;13449;49.374;8.584;2023-08-30T05:08:44;99906.44;;;13.83;100.00
24486;BME280;13449;49.374;8.584;2023-08-30T05:11:11;99901.69;;;13.86;100.00
24486;BME280;13449;49.374;8.584;2023-08-30T05:13:37;99897.44;;;13.93;100.00
24486;BME280;13449;49.374;8.584;2023-08-30T05:16:09;99897.50;;;14.01;100.00
24486;BME280;13449;49.374;8.584;2023-08-30T05:18:35;99904.84;;;14.07;100.00
24486;BME280;13449;49.374;8.584;2023-08-30T05:21:03;99895.53;;;14.03;100.00
24486;BME280;13449;49.374;8.584;2023-08-30T05:23:30;99894.25;;;14.07;100.00
24486;BME280;13449;49.374;8.584;2023-08-30T05:25:58;99901.56;;;14.14;100.00
24486;BME280;13449;49.374;8.584;2023-08-30T05:28:25;99900.22;;;14.09;100.00
24486;BME280;13449;49.374;8.584;2023-08-30T05:30:54;99906.50;;;14.08;100.00
24486;BME280;13449;49.374;8.584;2023-08-30T05:33:20;99911.50;;;14.12;100.00
24486;BME280;13449;49.374;8.584;2023-08-30T05:35:46;99902.50;;;14.04;100.00
24486;BME280;13449;49.374;8.584;2023-08-30T05:38:13;99899.00;;;14.04;100.00
24486;BME280;13449;49.374;8.584;2023-08-30T05:40:39;99899.00;;;14.04;100.00
24486;BME280;13449;49.374;8.584;2023-08-30T05:43:09;99892.88;;;14.03;100.00
24486;BME280;13449;49.374;8.584;2023-08-30T05:45:38;99898.19;;;14.03;100.00
24486;BME280;13449;49.374;8.584;2023-08-30T05:48:05;99900.16;;;14.01;100.00
24486;BME280;13449;49.374;8.584;2023-08-30T05:50:33;99898.19;;;14.03;100.00
24486;BME280;13449;49.374;8.584;2023-08-30T05:53:03;99902.50;;;14.04;100.00
24486;BME280;13449;49.374;8.584;2023-08-30T05:55:30;99896.91;;;14.07;100.00
24486;BME280;13449;49.374;8.584;2023-08-30T05:57:56;99895.59;;;14.12;100.00
24486;BME280;13449;49.374;8.584;2023-08-30T06:00:25;99888.03;;;14.17;100.00
24486;BME280;13449;49.374;8.584;2023-08-30T06:02:52;99901.34;;;14.25;100.00
24486;BME280;13449;49.374;8.584;2023-08-30T06:05:18;99891.78;;;14.32;100.00
24486;BME280;13449;49.374;8.584;2023-08-30T06:07:47;99895.63;;;14.37;100.00
24486;BME280;13449;49.374;8.584;2023-08-30T06:10:16;99899.47;;;14.43;100.00
24486;BME280;13449;49.374;8.584;2023-08-30T06:12:43;99900.00;;;14.47;100.00
24486;BME280;13449;49.374;8.584;2023-08-30T06:15:09;99891.47;;;14.53;100.00
24486;BME280;13449;49.374;8.584;2023-08-30T06:17:39;99896.13;;;14.59;100.00
24486;BME280;13449;49.374;8.584;2023-08-30T06:20:06;99898.44;;;14.62;100.00
24486;BME280;13449;49.374;8.584;2023-08-30T06:22:33;99897.00;;;14.67;100.00
24486;BME280;13449;49.374;8.584;2023-08-30T06:24:59;99898.84;;;14.75;100.00
24486;BME280;13449;49.374;8.584;2023-08-30T06:27:26;99898.53;;;14.78;100.00
24486;BME280;13449;49.374;8.584;2023-08-30T06:29:52;99895.41;;;14.83;100.00
24486;BME280;13449;49.374;8.584;2023-08-30T06:32:19;99898.44;;;14.88;100.00
24486;BME280;13449;49.374;8.584;2023-08-30T06:34:45;99890.81;;;14.93;100.00
24486;BME280;13449;49.374;8.584;2023-08-30T06:37:12;99891.31;;;14.96;100.00
24486;BME280;13449;49.374;8.584;2023-08-30T06:39:38;99894.03;;;15.05;100.00
24486;BME280;13449;49.374;8.584;2023-08-30T06:42:05;99887.56;;;15.07;100.00
24486;BME280;13449;49.374;8.584;2023-08-30T06:44:31;99896.50;;;15.06;100.00
24486;BME280;13449;49.374;8.584;2023-08-30T06:46:58;99901.50;;;15.09;100.00
24486;BME280;13449;49.374;8.584;2023-08-30T06:49:30;99892.88;;;15.07;100.00
24486;BME280;13449;49.374;8.584;2023-08-30T06:52:02;99903.81;;;15.12;100.00
24486;BME280;13449;49.374;8.584;2023-08-30T06:54:33;99899.19;;;15.14;100.00
24486;BME280;13449;49.374;8.584;2023-08-30T06:57:00;99908.84;;;15.23;100.00
24486;BME280;13449;49.374;8.584;2023-08-30T06:59:27;99907.53;;;15.27;100.00
24486;BME280;13449;49.374;8.584;2023-08-30T07:01:54;99900.59;;;15.35;100.00
24486;BME280;13449;49.374;8.584;2023-08-30T07:04:21;99887.31;;;15.43;100.00
24486;BME280;13449;49.374;8.584;2023-08-30T07:06:47;99895.00;;;15.54;100.00
24486;BME280;13449;49.374;8.584;2023-08-30T07:09:14;99885.59;;;15.68;100.00
24486;BME280;13449;49.374;8.584;2023-08-30T07:11:44;99883.09;;;15.74;100.00
24486;BME280;13449;49.374;8.584;2023-08-30T07:14:14;99880.63;;;15.81;100.00
24486;BME280;13449;49.374;8.584;2023-08-30T07:16:40;99881.13;;;15.84;100.00
24486;BME280;13449;49.374;8.584;2023-08-30T07:19:11;99871.47;;;15.92;100.00
24486;BME280;13449;49.374;8.584;2023-08-30T07:21:41;99877.13;;;16.05;100.00
24486;BME280;13449;49.374;8.584;2023-08-30T07:24:08;99881.63;;;16.12;100.00
24486;BME280;13449;49.374;8.584;2023-08-30T07:26:35;99865.84;;;16.11;100.00
24486;BME280;13449;49.374;8.584;2023-08-30T07:29:03;99868.47;;;16.19;100.00
24486;BME280;13449;49.374;8.584;2023-08-30T07:31:32;99870.31;;;16.27;100.00
24486;BME280;13449;49.374;8.584;2023-08-30T07:33:59;99863.47;;;16.32;100.00
24486;BME280;13449;49.374;8.584;2023-08-30T07:36:26;99862.13;;;16.44;100.00
24486;BME280;13449;49.374;8.584;2023-08-30T07:39:12;99863.25;;;16.58;100.00
24486;BME280;13449;49.374;8.584;2023-08-30T07:41:39;99860.41;;;16.68;100.00
24486;BME280;13449;49.374;8.584;2023-08-30T07:44:08;99860.41;;;16.76;100.00
24486;BME280;13449;49.374;8.584;2023-08-30T07:46:35;99851.78;;;16.74;100.00
24486;BME280;13449;49.374;8.584;2023-08-30T07:49:01;99849.78;;;16.76;100.00
24486;BME280;13449;49.374;8.584;2023-08-30T07:51:29;99848.38;;;16.88;100.00
24486;BME280;13449;49.374;8.584;2023-08-30T07:53:55;99844.22;;;16.86;100.00
24486;BME280;13449;49.374;8.584;2023-08-30T07:56:24;99831.44;;;16.89;100.00
24486;BME280;13449;49.374;8.584;2023-08-30T07:58:51;99856.31;;;17.04;100.00
24486;BME280;13449;49.374;8.584;2023-08-30T08:01:17;99847.59;;;17.11;100.00
24486;BME280;13449;49.374;8.584;2023-08-30T08:03:46;99863.13;;;17.30;100.00
24486;BME280;13449;49.374;8.584;2023-08-30T08:06:31;99865.59;;;17.40;100.00
24486;BME280;13449;49.374;8.584;2023-08-30T08:08:58;99861.72;;;17.42;100.00
24486;BME280;13449;49.374;8.584;2023-08-30T08:11:25;99850.72;;;17.45;100.00
24486;BME280;13449;49.374;8.584;2023-08-30T08:13:52;99859.25;;;17.63;100.00
24486;BME280;13449;49.374;8.584;2023-08-30T08:16:18;99868.16;;;17.79;100.00
24486;BME280;13449;49.374;8.584;2023-08-30T08:18:48;99870.41;;;17.90;100.00
24486;BME280;13449;49.374;8.584;2023-08-30T08:21:15;99864.72;;;17.93;100.00
24486;BME280;13449;49.374;8.584;2023-08-30T08:23:42;99858.38;;;17.94;100.00
24486;BME280;13449;49.374;8.584;2023-08-30T08:26:08;99865.06;;;17.90;100.00
24486;BME280;13449;49.374;8.584;2023-08-30T08:28:35;99859.09;;;17.88;100.00
24486;BME280;13449;49.374;8.584;2023-08-30T08:31:01;99859.56;;;17.91;100.00
24486;BME280;13449;49.374;8.584;2023-08-30T08:33:28;99865.75;;;18.07;100.00
24486;BME280;13449;49.374;8.584;2023-08-30T08:35:55;99860.91;;;18.10;100.00
24486;BME280;13449;49.374;8.584;2023-08-30T08:38:21;99862.19;;;18.14;100.00
24486;BME280;13449;49.374;8.584;2023-08-30T08:40:48;99850.31;;;18.02;100.00
24486;BME280;13449;49.374;8.584;2023-08-30T08:43:17;99863.03;;;18.15;100.00
24486;BME280;13449;49.374;8.584;2023-08-30T08:45:45;99875.91;;;18.26;100.00
24486;BME280;13449;49.374;8.584;2023-08-30T08:48:14;99870.13;;;18.22;100.00
24486;BME280;13449;49.374;8.584;2023-08-30T08:50:41;99859.09;;;18.25;100.00
24486;BME280;13449;49.374;8.584;2023-08-30T08:53:09;99865.63;;;18.38;100.00
24486;BME280;13449;49.374;8.584;2023-08-30T08:55:36;99871.81;;;18.53;100.00
24486;BME280;13449;49.374;8.584;2023-08-30T08:58:04;99863.03;;;18.67;100.00
24486;BME280;13449;49.374;8.584;2023-08-30T09:00:31;99852.88;;;18.77;100.00
24486;BME280;13449;49.374;8.584;2023-08-30T09:02:58;99864.47;;;18.84;100.00
24486;BME280;13449;49.374;8.584;2023-08-30T09:05:27;99851.41;;;18.90;100.00
24486;BME280;13449;49.374;8.584;2023-08-30T09:07:58;99852.41;;;18.89;100.00
24486;BME280;13449;49.374;8.584;2023-08-30T09:10:27;99856.66;;;18.98;100.00
24486;BME280;13449;49.374;8.584;2023-08-30T09:12:53;99857.72;;;19.03;100.00
24486;BME280;13449;49.374;8.584;2023-08-30T09:15:22;99861.47;;;19.09;100.00
24486;BME280;13449;49.374;8.584;2023-08-30T09:17:56;99872.59;;;19.27;100.00
24486;BME280;13449;49.374;8.584;2023-08-30T09:20:22;99855.63;;;19.35;100.00
24486;BME280;13449;49.374;8.584;2023-08-30T09:22:49;99858.00;;;19.44;100.00
24486;BME280;13449;49.374;8.584;2023-08-30T09:25:27;99871.16;;;19.61;100.00
24486;BME280;13449;49.374;8.584;2023-08-30T09:27:57;99853.97;;;19.70;100.00
24486;BME280;13449;49.374;8.584;2023-08-30T09:30:27;99832.53;;;19.63;100.00
24486;BME280;13449;49.374;8.584;2023-08-30T09:32:53;99844.91;;;19.71;100.00
24486;BME280;13449;49.374;8.584;2023-08-30T09:35:23;99847.16;;;19.89;100.00
24486;BME280;13449;49.374;8.584;2023-08-30T09:37:49;99843.28;;;19.91;100.00
24486;BME280;13449;49.374;8.584;2023-08-30T09:40:19;99819.09;;;19.78;100.00
24486;BME280;13449;49.374;8.584;2023-08-30T09:42:46;99834.91;;;19.73;100.00
24486;BME280;13449;49.374;8.584;2023-08-30T09:45:32;99828.25;;;19.69;100.00
24486;BME280;13449;49.374;8.584;2023-08-30T09:48:00;99832.59;;;19.70;100.00
24486;BME280;13449;49.374;8.584;2023-08-30T09:50:33;99851.69;;;19.88;100.00
24486;BME280;13449;49.374;8.584;2023-08-30T09:53:13;99819.09;;;19.78;100.00
24486;BME280;13449;49.374;8.584;2023-08-30T09:55:44;99832.13;;;19.88;100.00
24486;BME280;13449;49.374;8.584;2023-08-30T09:58:11;99826.97;;;19.86;100.00
24486;BME280;13449;49.374;8.584;2023-08-30T10:00:45;99824.84;;;19.75;100.00
24486;BME280;13449;49.374;8.584;2023-08-30T10:03:12;99821.16;;;19.76;100.00
24486;BME280;13449;49.374;8.584;2023-08-30T10:05:57;99821.78;;;19.57;100.00
24486;BME280;13449;49.374;8.584;2023-08-30T10:08:25;99827.19;;;19.63;100.00
24486;BME280;13449;49.374;8.584;2023-08-30T10:10:58;99828.19;;;19.84;100.00
24486;BME280;13449;49.374;8.584;2023-08-30T10:13:27;99823.66;;;20.06;100.00
24486;BME280;13449;49.374;8.584;2023-08-30T10:16:00;99803.72;;;20.08;100.00
24486;BME280;13449;49.374;8.584;2023-08-30T10:18:32;99814.44;;;20.15;100.00
24486;BME280;13449;49.374;8.584;2023-08-30T10:20:59;99814.81;;;20.05;100.00
24486;BME280;13449;49.374;8.584;2023-08-30T10:23:26;99810.22;;;19.99;100.00
24486;BME280;13449;49.374;8.584;2023-08-30T10:25:54;99786.25;;;19.84;100.00
24486;BME280;13449;49.374;8.584;2023-08-30T10:28:22;99796.06;;;19.77;100.00
24486;BME280;13449;49.374;8.584;2023-08-30T10:30:52;99800.72;;;19.68;100.00
24486;BME280;13449;49.374;8.584;2023-08-30T10:33:21;99806.25;;;19.67;100.00
24486;BME280;13449;49.374;8.584;2023-08-30T10:35:52;99806.50;;;19.72;100.00
24486;BME280;13449;49.374;8.584;2023-08-30T10:38:28;99801.34;;;19.70;100.00
24486;BME280;13449;49.374;8.584;2023-08-30T10:41:06;99796.81;;;19.71;100.00
24486;BME280;13449;49.374;8.584;2023-08-30T10:43:35;99789.66;;;19.99;100.00
24486;BME280;13449;49.374;8.584;2023-08-30T10:46:04;99781.72;;;20.13;100.00
24486;BME280;13449;49.374;8.584;2023-08-30T10:48:36;99773.72;;;20.19;100.00
24486;BME280;13449;49.374;8.584;2023-08-30T10:51:05;99778.41;;;20.39;100.00
24486;BME280;13449;49.374;8.584;2023-08-30T10:53:33;99743.16;;;20.28;100.00
24486;BME280;13449;49.374;8.584;2023-08-30T10:56:29;99762.91;;;20.34;100.00
24486;BME280;13449;49.374;8.584;2023-08-30T10:58:57;99762.69;;;20.29;100.00
24486;BME280;13449;49.374;8.584;2023-08-30T11:01:23;99753.25;;;20.33;100.00
24486;BME280;13449;49.374;8.584;2023-08-30T11:03:50;99750.91;;;20.51;100.00
24486;BME280;13449;49.374;8.584;2023-08-30T11:06:19;99745.59;;;20.64;100.00
24486;BME280;13449;49.374;8.584;2023-08-30T11:08:47;99735.97;;;20.77;100.00
24486;BME280;13449;49.374;8.584;2023-08-30T11:11:14;99742.81;;;20.86;100.00
24486;BME280;13449;49.374;8.584;2023-08-30T11:13:41;99726.75;;;20.86;100.00
24486;BME280;13449;49.374;8.584;2023-08-30T11:16:07;99739.97;;;21.01;100.00
24486;BME280;13449;49.374;8.584;2023-08-30T11:18:37;99735.44;;;21.14;100.00
24486;BME280;13449;49.374;8.584;2023-08-30T11:21:09;99738.56;;;21.18;100.00
24486;BME280;13449;49.374;8.584;2023-08-30T11:23:40;99728.88;;;21.23;100.00
24486;BME280;13449;49.374;8.584;2023-08-30T11:26:07;99733.44;;;21.36;100.00
24486;BME280;13449;49.374;8.584;2023-08-30T11:28:33;99712.00;;;21.43;100.00
24486;BME280;13449;49.374;8.584;2023-08-30T11:31:02;99697.19;;;21.34;100.00
24486;BME280;13449;49.374;8.584;2023-08-30T11:33:29;99719.44;;;21.41;100.00
24486;BME280;13449;49.374;8.584;2023-08-30T11:35:58;99698.84;;;21.48;100.00
24486;BME280;13449;49.374;8.584;2023-08-30T11:38:27;99686.47;;;21.53;100.00
24486;BME280;13449;49.374;8.584;2023-08-30T11:40:54;99690.38;;;21.44;100.00
24486;BME280;13449;49.374;8.584;2023-08-30T11:43:21;99671.81;;;21.43;100.00
24486;BME280;13449;49.374;8.584;2023-08-30T11:45:55;99682.53;;;21.30;100.00
24486;BME280;13449;49.374;8.584;2023-08-30T11:48:24;99684.34;;;21.09;100.00
24486;BME280;13449;49.374;8.584;2023-08-30T11:50:53;99699.63;;;21.15;100.00
24486;BME280;13449;49.374;8.584;2023-08-30T11:53:20;99694.94;;;21.31;100.00
24486;BME280;13449;49.374;8.584;2023-08-30T11:55:47;99711.00;;;21.50;100.00
24486;BME280;13449;49.374;8.584;2023-08-30T11:58:16;99692.22;;;21.57;100.00
24486;BME280;13449;49.374;8.584;2023-08-30T12:00:44;99687.69;;;21.64;100.00
24486;BME280;13449;49.374;8.584;2023-08-30T12:03:14;99685.41;;;21.74;100.00
24486;BME280;13449;49.374;8.584;2023-08-30T12:05:45;99693.88;;;21.65;100.00
24486;BME280;13449;49.374;8.584;2023-08-30T12:08:24;99686.22;;;21.81;100.00
24486;BME280;13449;49.374;8.584;2023-08-30T12:10:52;99671.16;;;21.87;100.00
24486;BME280;13449;49.374;8.584;2023-08-30T12:13:25;99678.56;;;21.98;100.00
24486;BME280;13449;49.374;8.584;2023-08-30T12:15:53;99661.81;;;22.03;100.00
24486;BME280;13449;49.374;8.584;2023-08-30T12:18:31;99673.19;;;21.92;100.00
24486;BME280;13449;49.374;8.584;2023-08-30T12:21:01;99674.41;;;22.02;100.00
24486;BME280;13449;49.374;8.584;2023-08-30T12:23:30;99648.84;;;22.00;100.00
24486;BME280;13449;49.374;8.584;2023-08-30T12:28:28;99649.63;;;22.20;100.00
24486;BME280;13449;49.374;8.584;2023-08-30T12:30:56;99645.88;;;22.21;100.00
24486;BME280;13449;49.374;8.584;2023-08-30T12:33:24;99632.53;;;22.01;100.00
24486;BME280;13449;49.374;8.584;2023-08-30T12:35:57;99645.94;;;22.08;100.00
24486;BME280;13449;49.374;8.584;2023-08-30T12:38:26;99634.78;;;22.18;100.00
24486;BME280;13449;49.374;8.584;2023-08-30T12:40:54;99634.72;;;22.24;100.00
24486;BME280;13449;49.374;8.584;2023-08-30T12:43:22;99630.59;;;22.28;100.00
24486;BME280;13449;49.374;8.584;2023-08-30T12:45:49;99653.66;;;22.42;100.00
24486;BME280;13449;49.374;8.584;2023-08-30T12:48:17;99642.16;;;22.29;100.00
24486;BME280;13449;49.374;8.584;2023-08-30T12:50:47;99641.78;;;22.19;100.00
24486;BME280;13449;49.374;8.584;2023-08-30T12:53:15;99649.69;;;21.94;100.00
24486;BME280;13449;49.374;8.584;2023-08-30T12:55:43;99650.97;;;21.71;100.00
24486;BME280;13449;49.374;8.584;2023-08-30T12:58:10;99643.38;;;21.42;100.00
24486;BME280;13449;49.374;8.584;2023-08-30T13:00:38;99648.72;;;21.09;100.00